createdAt,value
2022-08-26T00:01:58.612Z,20.91
2022-08-26T00:05:04.135Z,20.81
2022-08-26T00:08:08.107Z,20.77
2022-08-26T00:11:15.961Z,20.74
2022-08-26T00:14:30.785Z,20.82
2022-08-26T00:17:34.262Z,20.81
2022-08-26T00:20:36.990Z,20.82
2022-08-26T00:23:40.622Z,20.70
2022-08-26T00:26:43.873Z,20.82
2022-08-26T00:29:47.571Z,20.80
2022-08-26T00:32:51.283Z,20.74
2022-08-26T00:35:55.347Z,20.68
2022-08-26T00:38:58.571Z,20.65
2022-08-26T00:42:01.963Z,20.61
2022-08-26T00:45:11.549Z,20.62
2022-08-26T00:48:18.529Z,20.60
2022-08-26T00:51:25.110Z,20.50
2022-08-26T00:54:40.307Z,20.46
2022-08-26T00:57:48.458Z,20.40
2022-08-26T01:00:52.833Z,20.34
2022-08-26T01:03:56.088Z,20.12
2022-08-26T01:07:00.105Z,20.16
2022-08-26T01:10:10.380Z,20.07
2022-08-26T01:13:14.237Z,20.03
2022-08-26T01:16:17.186Z,20.03
2022-08-26T01:19:29.921Z,19.99
2022-08-26T01:22:57.380Z,19.98
2022-08-26T01:26:06.541Z,19.96
2022-08-26T01:29:13.331Z,19.75
2022-08-26T01:32:20.155Z,19.65
2022-08-26T01:35:22.907Z,19.67
2022-08-26T01:38:27.784Z,19.63
2022-08-26T01:41:35.488Z,19.50
2022-08-26T01:44:47.431Z,19.44
2022-08-26T01:47:57.055Z,19.42
2022-08-26T01:51:03.468Z,19.42
2022-08-26T01:54:07.971Z,19.34
2022-08-26T01:57:18.543Z,19.36
2022-08-26T02:00:23.041Z,19.21
2022-08-26T02:03:27.710Z,19.30
2022-08-26T02:06:31.934Z,19.32
2022-08-26T02:09:41.242Z,19.29
2022-08-26T02:12:44.566Z,19.29
2022-08-26T02:15:48.120Z,19.25
2022-08-26T02:18:52.844Z,19.16
2022-08-26T02:21:59.235Z,19.23
2022-08-26T02:25:32.404Z,19.20
2022-08-26T02:28:47.459Z,19.07
2022-08-26T02:31:51.935Z,19.01
2022-08-26T02:34:54.652Z,18.97
2022-08-26T02:37:58.012Z,18.95
2022-08-26T02:41:00.749Z,19.11
2022-08-26T02:44:04.463Z,19.19
2022-08-26T02:47:08.121Z,19.14
2022-08-26T02:50:11.515Z,19.36
2022-08-26T02:53:15.149Z,19.21
2022-08-26T02:56:18.426Z,19.31
2022-08-26T02:59:24.323Z,19.27
2022-08-26T03:02:28.884Z,19.43
2022-08-26T03:05:31.500Z,19.41
2022-08-26T03:08:34.609Z,19.39
2022-08-26T03:11:37.819Z,19.38
2022-08-26T03:14:40.772Z,19.21
2022-08-26T03:17:44.819Z,19.08
2022-08-26T03:20:47.797Z,19.04
2022-08-26T03:23:51.495Z,19.23
2022-08-26T03:26:54.758Z,19.16
2022-08-26T03:30:17.076Z,19.20
2022-08-26T03:33:20.226Z,19.10
2022-08-26T03:36:23.024Z,19.19
2022-08-26T03:39:27.578Z,19.23
2022-08-26T03:42:36.582Z,19.12
2022-08-26T03:45:40.909Z,18.79
2022-08-26T03:48:43.973Z,18.85
2022-08-26T03:51:47.744Z,18.91
2022-08-26T03:54:50.773Z,18.64
2022-08-26T03:57:53.805Z,18.80
2022-08-26T04:00:56.443Z,18.81
2022-08-26T04:04:00.524Z,18.81
2022-08-26T04:07:04.058Z,18.71
2022-08-26T04:10:08.088Z,18.84
2022-08-26T04:13:12.615Z,18.89
2022-08-26T04:16:17.486Z,18.94
2022-08-26T04:19:21.210Z,18.88
2022-08-26T04:22:25.060Z,18.95
2022-08-26T04:25:27.997Z,18.86
2022-08-26T04:28:31.620Z,19.12
2022-08-26T04:31:35.841Z,19.20
2022-08-26T05:01:45.223Z,19.77
2022-08-26T05:04:48.473Z,19.94
2022-08-26T05:07:54.504Z,20.00
2022-08-26T05:10:58.351Z,20.04
2022-08-26T05:14:02.305Z,20.20
2022-08-26T05:17:05.521Z,20.22
2022-08-26T05:20:09.858Z,20.30
2022-08-26T05:23:15.007Z,20.38
2022-08-26T05:26:22.978Z,20.49
2022-08-26T05:29:26.223Z,20.58
2022-08-26T05:32:28.956Z,20.68
2022-08-26T05:35:34.181Z,20.81
2022-08-26T05:38:37.008Z,20.90
2022-08-26T05:41:42.066Z,21.06
2022-08-26T05:44:55.557Z,21.23
2022-08-26T05:48:00.623Z,21.34
2022-08-26T05:51:05.810Z,21.56
2022-08-26T05:54:10.477Z,21.75
2022-08-26T05:57:13.971Z,21.87
2022-08-26T06:00:16.871Z,22.01
2022-08-26T06:03:19.778Z,22.19
2022-08-26T06:06:34.820Z,22.40
2022-08-26T06:09:38.616Z,22.59
2022-08-26T06:12:41.448Z,22.72
2022-08-26T06:15:46.489Z,22.86
2022-08-26T06:18:51.061Z,22.95
2022-08-26T06:21:55.058Z,23.16
2022-08-26T06:25:15.992Z,23.24
2022-08-26T06:28:18.948Z,23.31
2022-08-26T06:31:23.019Z,23.41
2022-08-26T06:34:30.900Z,23.62
2022-08-26T06:37:33.597Z,23.82
2022-08-26T06:40:43.330Z,23.92
2022-08-26T06:43:47.548Z,24.03
2022-08-26T06:46:51.477Z,24.12
2022-08-26T06:49:54.256Z,24.28
2022-08-26T06:52:57.230Z,24.37
2022-08-26T06:56:05.106Z,24.51
2022-08-26T06:59:08.990Z,24.68
2022-08-26T07:02:13.372Z,24.72
2022-08-26T07:05:17.523Z,24.79
2022-08-26T07:08:22.396Z,24.95
2022-08-26T07:11:25.343Z,25.12
2022-08-26T07:14:28.506Z,25.21
2022-08-26T07:17:31.512Z,25.38
2022-08-26T07:20:40.272Z,25.40
2022-08-26T07:23:45.428Z,25.48
2022-08-26T07:26:49.516Z,25.55
2022-08-26T07:29:57.199Z,25.64
2022-08-26T07:33:01.797Z,25.74
2022-08-26T07:36:08.273Z,25.80
2022-08-26T07:39:18.960Z,25.85
2022-08-26T07:42:22.104Z,25.69
2022-08-26T07:45:24.889Z,25.98
2022-08-26T07:48:50.301Z,26.08
2022-08-26T07:51:59.553Z,26.25
2022-08-26T07:55:03.161Z,26.31
2022-08-26T07:58:06.572Z,26.44
2022-08-26T08:01:30.795Z,26.22
2022-08-26T08:05:21.859Z,26.60
2022-08-26T08:08:27.579Z,26.78
2022-08-26T08:11:32.498Z,26.81
2022-08-26T08:14:37.257Z,26.85
2022-08-26T08:17:42.924Z,26.75
2022-08-26T08:21:04.610Z,27.01
2022-08-26T08:24:08.136Z,27.07
2022-08-26T08:27:11.300Z,27.30
2022-08-26T08:30:20.805Z,27.38
2022-08-26T08:33:26.544Z,27.61
2022-08-26T08:36:35.863Z,27.69
2022-08-26T08:39:39.075Z,27.79
2022-08-26T08:43:06.241Z,27.83
2022-08-26T08:46:17.331Z,28.06
2022-08-26T08:49:25.992Z,28.17
2022-08-26T08:52:35.667Z,28.23
2022-08-26T08:56:08.052Z,28.23
2022-08-26T08:59:17.988Z,28.34
2022-08-26T09:02:34.667Z,28.63
2022-08-26T09:05:48.513Z,28.56
2022-08-26T09:08:52.212Z,28.76
2022-08-26T09:12:01.741Z,28.65
2022-08-26T09:15:30.394Z,28.81
2022-08-26T09:18:42.561Z,28.90
2022-08-26T09:21:56.926Z,29.06
2022-08-26T09:25:01.528Z,29.15
2022-08-26T09:28:15.806Z,29.40
2022-08-26T09:31:27.498Z,29.40
2022-08-26T09:34:31.251Z,29.47
2022-08-26T09:41:05.156Z,29.91
2022-08-26T09:44:18.134Z,29.97
2022-08-26T09:47:26.007Z,30.08
2022-08-26T09:50:36.230Z,30.08
2022-08-26T09:53:59.770Z,30.19
2022-08-26T09:57:18.995Z,30.31
2022-08-26T10:00:26.798Z,30.31
2022-08-26T10:03:36.710Z,30.52
2022-08-26T10:07:01.520Z,30.58
2022-08-26T10:10:09.366Z,30.78
2022-08-26T10:13:19.595Z,30.76
2022-08-26T10:16:29.667Z,30.89
2022-08-26T10:19:57.033Z,30.99
2022-08-26T10:23:12.705Z,31.17
2022-08-26T10:26:20.948Z,31.04
2022-08-26T10:29:34.268Z,30.99
2022-08-26T10:32:44.335Z,31.33
2022-08-26T10:35:53.654Z,31.59
2022-08-26T10:38:59.275Z,31.48
2022-08-26T10:42:09.918Z,31.48
2022-08-26T10:45:20.559Z,31.53
2022-08-26T10:48:24.557Z,31.37
2022-08-26T10:51:35.604Z,31.19
2022-08-26T10:55:03.508Z,31.41
2022-08-26T10:58:27.672Z,31.41
2022-08-26T11:01:43.025Z,31.50
2022-08-26T11:05:03.547Z,31.68
2022-08-26T11:08:21.720Z,31.60
2022-08-26T11:11:39.727Z,31.83
2022-08-26T11:14:58.600Z,31.87
2022-08-26T11:18:10.953Z,31.92
2022-08-26T11:21:51.796Z,32.14
2022-08-26T11:24:57.218Z,32.34
2022-08-26T11:28:02.645Z,32.40
2022-08-26T11:31:10.076Z,32.50
2022-08-26T11:34:14.270Z,32.32
2022-08-26T11:37:18.094Z,32.10
2022-08-26T11:40:25.118Z,31.80
2022-08-26T11:43:29.792Z,31.80
2022-08-26T11:46:37.511Z,32.10
2022-08-26T11:49:40.212Z,32.12
2022-08-26T11:53:06.328Z,32.32
2022-08-26T11:56:27.072Z,32.40
2022-08-26T11:59:39.079Z,32.44
2022-08-26T12:02:42.883Z,32.52
2022-08-26T12:05:49.650Z,32.48
2022-08-26T12:08:55.501Z,32.30
2022-08-26T12:12:21.836Z,32.66
2022-08-26T12:15:25.440Z,32.76
2022-08-26T12:18:37.866Z,32.74
2022-08-26T12:21:40.523Z,32.99
2022-08-26T12:24:51.385Z,32.97
2022-08-26T12:27:54.279Z,32.69
2022-08-26T12:31:02.762Z,32.71
2022-08-26T12:34:17.367Z,32.84
2022-08-26T12:37:21.436Z,33.01
2022-08-26T12:40:31.648Z,32.94
2022-08-26T12:43:41.810Z,33.11
2022-08-26T12:46:49.188Z,32.78
2022-08-26T12:50:25.470Z,33.08
2022-08-26T12:53:31.046Z,33.04
2022-08-26T12:56:39.556Z,33.16
2022-08-26T12:59:42.156Z,33.32
2022-08-26T13:02:45.156Z,33.40
2022-08-26T13:05:47.925Z,33.41
2022-08-26T13:08:59.791Z,33.19
2022-08-26T13:12:02.443Z,33.36
2022-08-26T13:15:06.437Z,33.42
2022-08-26T13:18:09.094Z,33.71
2022-08-26T13:21:17.629Z,33.79
2022-08-26T13:24:33.839Z,33.87
2022-08-26T13:27:36.754Z,33.90
2022-08-26T13:30:44.425Z,33.84
2022-08-26T13:33:48.555Z,34.03
2022-08-26T13:36:54.491Z,33.99
2022-08-26T13:39:57.571Z,34.16
2022-08-26T13:43:00.248Z,34.13
2022-08-26T13:46:03.657Z,34.01
2022-08-26T13:49:06.465Z,33.16
2022-08-26T13:52:11.380Z,33.71
2022-08-26T13:55:14.078Z,33.93
2022-08-26T13:58:17.332Z,33.65
2022-08-26T14:01:20.087Z,33.65
2022-08-26T14:04:27.308Z,33.83
2022-08-26T14:07:30.148Z,33.90
2022-08-26T14:10:33.232Z,33.87
2022-08-26T14:13:36.253Z,33.94
2022-08-26T14:16:58.726Z,33.96
2022-08-26T14:20:03.470Z,33.96
2022-08-26T14:23:14.459Z,33.99
2022-08-26T14:26:28.361Z,33.89
2022-08-26T14:29:34.695Z,33.81
2022-08-26T14:32:41.500Z,33.82
2022-08-26T14:35:48.806Z,33.69
2022-08-26T14:38:52.312Z,33.85
2022-08-26T14:41:56.597Z,33.98
2022-08-26T14:45:01.988Z,33.90
2022-08-26T14:48:05.124Z,33.88
2022-08-26T14:51:07.747Z,33.91
2022-08-26T14:54:11.807Z,33.75
2022-08-26T14:57:15.334Z,33.66
2022-08-26T15:00:21.262Z,33.75
2022-08-26T15:03:23.847Z,33.25
2022-08-26T15:06:28.559Z,33.51
2022-08-26T15:09:34.427Z,33.49
2022-08-26T15:12:38.617Z,33.58
2022-08-26T15:15:41.272Z,33.29
2022-08-26T15:18:44.921Z,33.35
2022-08-26T15:21:48.009Z,33.36
2022-08-26T15:24:51.763Z,33.20
2022-08-26T15:27:56.448Z,33.10
2022-08-26T15:31:00.509Z,33.02
2022-08-26T15:34:05.909Z,32.97
2022-08-26T15:37:09.709Z,32.86
2022-08-26T15:40:12.426Z,32.85
2022-08-26T15:43:28.442Z,32.86
2022-08-26T15:46:32.137Z,32.64
2022-08-26T15:49:35.307Z,32.72
2022-08-26T15:52:38.835Z,32.87
2022-08-26T15:55:41.804Z,32.81
2022-08-26T15:58:44.727Z,32.75
2022-08-26T16:01:48.282Z,32.71
2022-08-26T16:04:51.509Z,32.71
2022-08-26T16:07:54.211Z,32.49
2022-08-26T16:10:57.086Z,32.37
2022-08-26T16:13:59.877Z,32.43
2022-08-26T16:17:02.871Z,32.40
2022-08-26T16:20:06.433Z,32.35
2022-08-26T16:23:09.430Z,32.17
2022-08-26T16:26:19.319Z,32.05
2022-08-26T16:29:22.266Z,31.88
2022-08-26T16:32:29.359Z,31.71
2022-08-26T16:35:34.128Z,31.51
2022-08-26T16:38:37.719Z,31.29
2022-08-26T16:41:40.673Z,31.21
2022-08-26T16:44:46.305Z,30.85
2022-08-26T16:47:49.987Z,30.47
2022-08-26T16:50:55.353Z,30.12
2022-08-26T16:54:00.864Z,29.82
2022-08-26T16:57:03.893Z,29.51
2022-08-26T17:00:12.879Z,29.36
2022-08-26T17:03:15.844Z,29.10
2022-08-26T17:06:18.879Z,28.92
2022-08-26T17:09:21.852Z,28.75
2022-08-26T17:12:24.879Z,28.54
2022-08-26T17:15:27.670Z,28.40
2022-08-26T17:18:30.672Z,28.25
2022-08-26T17:21:35.456Z,28.06
2022-08-26T17:24:38.507Z,27.82
2022-08-26T17:27:41.833Z,27.85
2022-08-26T17:30:44.859Z,27.59
2022-08-26T17:33:53.322Z,27.53
2022-08-26T17:36:57.032Z,27.42
2022-08-26T17:39:59.654Z,27.29
2022-08-26T17:43:02.595Z,27.02
2022-08-26T17:46:07.699Z,26.80
2022-08-26T17:49:10.837Z,26.74
2022-08-26T17:52:14.340Z,26.61
2022-08-26T17:55:18.289Z,26.48
2022-08-26T17:58:23.774Z,26.35
2022-08-26T18:01:28.095Z,26.31
2022-08-26T18:04:31.479Z,26.18
2022-08-26T18:07:37.717Z,26.07
2022-08-26T18:10:47.179Z,26.03
2022-08-26T18:13:49.868Z,25.96
2022-08-26T18:16:53.356Z,25.83
2022-08-26T18:19:55.995Z,25.68
2022-08-26T18:22:58.986Z,25.47
2022-08-26T18:26:01.696Z,25.45
2022-08-26T18:29:05.588Z,25.34
2022-08-26T18:32:08.654Z,25.32
2022-08-26T18:35:12.472Z,25.24
2022-08-26T18:38:15.485Z,25.11
2022-08-26T18:41:21.596Z,25.01
2022-08-26T18:44:24.524Z,24.93
2022-08-26T18:47:27.815Z,24.85
2022-08-26T18:50:30.596Z,24.82
2022-08-26T18:53:34.488Z,24.71
2022-08-26T18:56:39.178Z,24.64
2022-08-26T18:59:42.242Z,24.58
2022-08-26T19:02:47.057Z,24.48
2022-08-26T19:05:55.485Z,24.43
2022-08-26T19:08:58.562Z,24.40
2022-08-26T19:12:02.552Z,24.33
2022-08-26T19:15:05.935Z,24.25
2022-08-26T19:18:10.267Z,24.24
2022-08-26T19:21:13.305Z,24.20
2022-08-26T19:24:20.767Z,24.14
2022-08-26T19:27:23.369Z,24.09
2022-08-26T19:30:26.429Z,24.00
2022-08-26T19:33:32.024Z,23.89
2022-08-26T19:36:35.455Z,23.77
2022-08-26T19:39:38.882Z,23.74
2022-08-26T19:42:41.809Z,23.65
2022-08-26T19:45:44.509Z,23.62
2022-08-26T19:48:49.238Z,23.56
2022-08-26T19:51:54.455Z,23.53
2022-08-26T19:54:58.194Z,23.48
2022-08-26T19:58:01.056Z,23.39
2022-08-26T20:01:05.537Z,23.32
2022-08-26T20:04:08.531Z,23.30
2022-08-26T20:07:14.256Z,23.30
2022-08-26T20:10:23.560Z,23.32
2022-08-26T20:13:26.268Z,23.25
2022-08-26T20:16:29.214Z,23.12
2022-08-26T20:19:50.608Z,23.04
2022-08-26T20:22:54.432Z,22.98
2022-08-26T20:25:57.479Z,22.95
2022-08-26T20:29:00.513Z,22.59
2022-08-26T20:32:06.063Z,22.61
2022-08-26T20:35:12.411Z,22.65
2022-08-26T20:38:15.863Z,22.62
2022-08-26T20:41:22.087Z,22.65
2022-08-26T20:44:25.438Z,22.74
2022-08-26T20:47:28.630Z,22.68
2022-08-26T20:50:33.145Z,22.67
2022-08-26T20:53:36.220Z,22.66
2022-08-26T20:56:40.054Z,22.66
2022-08-26T20:59:43.569Z,22.59
2022-08-26T21:02:46.354Z,22.38
2022-08-26T21:08:52.032Z,22.55
2022-08-26T21:11:55.903Z,22.56
2022-08-26T21:14:58.551Z,22.55
2022-08-26T21:18:01.692Z,22.45
2022-08-26T21:21:09.053Z,22.32
2022-08-26T21:24:13.123Z,22.29
2022-08-26T21:27:17.684Z,22.21
2022-08-26T21:30:29.401Z,22.17
2022-08-26T21:33:32.610Z,21.95
2022-08-26T21:36:35.836Z,21.94
2022-08-26T21:39:38.469Z,21.96
2022-08-26T21:42:42.767Z,21.93
2022-08-26T21:45:45.446Z,21.80
2022-08-26T21:48:58.495Z,21.84
2022-08-26T21:52:04.584Z,21.84
2022-08-26T21:55:09.123Z,21.76
2022-08-26T21:58:14.317Z,21.75
2022-08-26T22:01:21.103Z,21.71
2022-08-26T22:04:24.312Z,21.58
2022-08-26T22:07:26.929Z,21.61
2022-08-26T22:10:29.939Z,21.59
2022-08-26T22:13:36.240Z,21.55
2022-08-26T22:16:39.309Z,21.57
2022-08-26T22:19:46.055Z,21.53
2022-08-26T22:22:49.578Z,21.40
2022-08-26T22:25:52.959Z,21.36
2022-08-26T22:28:58.596Z,21.33
2022-08-26T22:32:01.744Z,21.35
2022-08-26T22:35:28.253Z,21.35
2022-08-26T22:38:28.636Z,21.31
2022-08-26T22:41:32.661Z,21.28
2022-08-26T22:44:37.583Z,21.24
2022-08-26T22:47:40.982Z,21.24
2022-08-26T22:50:45.898Z,21.17
2022-08-26T22:53:49.340Z,21.13
2022-08-26T22:56:52.000Z,21.07
2022-08-26T22:59:54.948Z,20.95
2022-08-26T23:02:58.655Z,21.00
2022-08-26T23:06:04.607Z,20.95
2022-08-26T23:09:08.178Z,20.91
2022-08-26T23:12:11.200Z,20.89
2022-08-26T23:15:13.994Z,20.81
2022-08-26T23:18:19.007Z,20.80
2022-08-26T23:21:21.652Z,20.81
2022-08-26T23:24:24.551Z,20.61
2022-08-26T23:27:27.987Z,20.49
2022-08-26T23:30:33.111Z,20.28
2022-08-26T23:33:54.544Z,20.05
2022-08-26T23:37:00.030Z,20.16
2022-08-26T23:40:06.500Z,20.08
2022-08-26T23:43:16.371Z,20.00
2022-08-26T23:46:19.408Z,20.06
2022-08-26T23:49:22.599Z,19.81
2022-08-26T23:52:44.099Z,19.87
2022-08-26T23:55:49.994Z,19.84
2022-08-26T23:58:52.683Z,19.92
